Key West, FL

10:14 PM EST on December 24, 2014 (GMT -0500)
Key West International | Change Station
CLOSE
Current Station
Airport
Location: Key West,
Elevation: 0 ft
Nearby Weather Stations

Elev 0 ft 24.56 °N, 81.75 °W | Updated 5 minutes ago

Thunderstorm
Thunderstorm
78 °F
Feels Like 78 °F
N
13
Wind Variable Wind from South

Today
High -- | Low -- °F
--% Chance of Precip.
Yesterday
High -- | Low -- °F
Precip. -- in
7:08 AM 5:45 PM
Waxing Crescent, 13% visible
Pressure 29.99 in
Visibility 10.0 miles
Clouds Few 2400 ft
Mostly Cloudy 6500 ft
Overcast 9500 ft
Dew Point 74 °F
Humidity 87%
Rainfall 1.50 in
Snow Depth Not available.
UV 0 out of 12
Pollen 2.20 out of 12
Air Quality Not available.
Flu Activity Not available.
SPECI KEYW 250309Z AUTO 18011KT 10SM FEW024 BKN065 OVC095 26/23 A2999 RMK AO2 LTG DSNT NE RAE09 P0001 T02560233

More Conditions Fewer Conditions

Pressure 29.99 in
Visibility 10.0 miles
Clouds Few 2400 ft
Mostly Cloudy 6500 ft
Overcast 9500 ft
Dew Point 74 °F
Humidity 87%
Rainfall 1.50 in
Snow Depth Not available.
UV 0 out of 12
Pollen 2.20 out of 12
Air Quality Not available.
Flu Activity Not available.
SPECI KEYW 250309Z AUTO 18011KT 10SM FEW024 BKN065 OVC095 26/23 A2999 RMK AO2 LTG DSNT NE RAE09 P0001 T02560233

More Conditions Fewer Conditions

10-Day Weather Forecast

Almanac

Astronomy

Dec. 24, 2014 Rise Set
Actual Time
Civil Twilight
Nautical Twilight
Astronomical Twilight
Moon
Length of Visible Light
Length of Day
Tomorrow will be .
, % of the Moon is Illuminated

Today's Extremes

State Highs State Lows

Community

WunderPhotos

Upload Photos

1,780,224 photos uploaded!

WunderBlogs® & News

Nearby

Air Quality

  Air Quality AQ Index Pollutant
Not available.

Snow Depth

Station Depth Elevation

Earthquake Activity

City Distance Mag. Time & Date
Minimum magnitude displayed is 2.5.

Coastal Water Temperatures

Place Temperature

Nearby Weather Stations